sensor_id;sensor_type;location;lat;lon;timestamp;temperature;humidity
4374;DHT22;2201;51.100;6.814;2023-06-26T00:00:03;24.60;82.50
4374;DHT22;2201;51.100;6.814;2023-06-26T00:02:30;24.60;82.60
4374;DHT22;2201;51.100;6.814;2023-06-26T00:04:58;24.60;82.90
4374;DHT22;2201;51.100;6.814;2023-06-26T00:07:27;24.50;82.50
4374;DHT22;2201;51.100;6.814;2023-06-26T00:09:54;24.50;82.90
4374;DHT22;2201;51.100;6.814;2023-06-26T00:12:21;24.50;83.00
4374;DHT22;2201;51.100;6.814;2023-06-26T00:14:49;24.50;82.90
4374;DHT22;2201;51.100;6.814;2023-06-26T00:17:16;24.40;82.90
4374;DHT22;2201;51.100;6.814;2023-06-26T00:19:42;24.40;83.10
4374;DHT22;2201;51.100;6.814;2023-06-26T00:22:09;24.40;83.30
4374;DHT22;2201;51.100;6.814;2023-06-26T00:24:36;24.30;83.30
4374;DHT22;2201;51.100;6.814;2023-06-26T00:27:03;24.30;83.20
4374;DHT22;2201;51.100;6.814;2023-06-26T00:29:29;24.30;83.30
4374;DHT22;2201;51.100;6.814;2023-06-26T00:31:58;24.30;83.50
4374;DHT22;2201;51.100;6.814;2023-06-26T00:34:24;24.30;83.00
4374;DHT22;2201;51.100;6.814;2023-06-26T00:36:51;24.20;83.20
4374;DHT22;2201;51.100;6.814;2023-06-26T00:39:18;24.20;83.00
4374;DHT22;2201;51.100;6.814;2023-06-26T00:41:45;24.20;83.20
4374;DHT22;2201;51.100;6.814;2023-06-26T00:44:11;24.20;83.10
4374;DHT22;2201;51.100;6.814;2023-06-26T00:46:38;24.20;82.90
4374;DHT22;2201;51.100;6.814;2023-06-26T00:49:06;24.10;83.70
4374;DHT22;2201;51.100;6.814;2023-06-26T00:51:33;24.10;83.60
4374;DHT22;2201;51.100;6.814;2023-06-26T00:54:00;24.10;83.90
4374;DHT22;2201;51.100;6.814;2023-06-26T00:56:28;24.00;83.60
4374;DHT22;2201;51.100;6.814;2023-06-26T00:58:55;24.00;84.20
4374;DHT22;2201;51.100;6.814;2023-06-26T01:01:21;24.00;84.20
4374;DHT22;2201;51.100;6.814;2023-06-26T01:03:51;23.90;84.90
4374;DHT22;2201;51.100;6.814;2023-06-26T01:06:22;23.90;85.10
4374;DHT22;2201;51.100;6.814;2023-06-26T01:08:50;23.90;85.10
4374;DHT22;2201;51.100;6.814;2023-06-26T01:11:18;23.80;85.10
4374;DHT22;2201;51.100;6.814;2023-06-26T01:13:45;23.80;85.20
4374;DHT22;2201;51.100;6.814;2023-06-26T01:16:13;23.80;85.00
4374;DHT22;2201;51.100;6.814;2023-06-26T01:18:41;23.80;85.00
4374;DHT22;2201;51.100;6.814;2023-06-26T01:21:09;23.80;85.00
4374;DHT22;2201;51.100;6.814;2023-06-26T01:23:49;23.80;85.10
4374;DHT22;2201;51.100;6.814;2023-06-26T01:26:27;23.70;85.30
4374;DHT22;2201;51.100;6.814;2023-06-26T01:28:56;23.70;85.30
4374;DHT22;2201;51.100;6.814;2023-06-26T01:31:24;23.70;85.40
4374;DHT22;2201;51.100;6.814;2023-06-26T01:33:51;23.70;85.30
4374;DHT22;2201;51.100;6.814;2023-06-26T01:36:18;23.70;85.10
4374;DHT22;2201;51.100;6.814;2023-06-26T01:38:45;23.70;85.30
4374;DHT22;2201;51.100;6.814;2023-06-26T01:41:12;23.60;85.50
4374;DHT22;2201;51.100;6.814;2023-06-26T01:43:49;23.60;84.80
4374;DHT22;2201;51.100;6.814;2023-06-26T01:46:24;23.50;85.20
4374;DHT22;2201;51.100;6.814;2023-06-26T01:48:56;23.50;85.40
4374;DHT22;2201;51.100;6.814;2023-06-26T01:51:30;23.40;85.20
4374;DHT22;2201;51.100;6.814;2023-06-26T01:53:58;23.40;85.90
4374;DHT22;2201;51.100;6.814;2023-06-26T01:56:26;23.40;85.80
4374;DHT22;2201;51.100;6.814;2023-06-26T01:58:55;23.40;85.80
4374;DHT22;2201;51.100;6.814;2023-06-26T02:01:23;23.30;85.80
4374;DHT22;2201;51.100;6.814;2023-06-26T02:03:50;23.30;85.80
4374;DHT22;2201;51.100;6.814;2023-06-26T02:06:16;23.30;85.80
4374;DHT22;2201;51.100;6.814;2023-06-26T02:08:43;23.30;86.30
4374;DHT22;2201;51.100;6.814;2023-06-26T02:11:10;23.20;85.90
4374;DHT22;2201;51.100;6.814;2023-06-26T02:13:36;23.20;86.20
4374;DHT22;2201;51.100;6.814;2023-06-26T02:16:05;23.20;87.00
4374;DHT22;2201;51.100;6.814;2023-06-26T02:18:34;23.10;86.80
4374;DHT22;2201;51.100;6.814;2023-06-26T02:21:03;23.10;87.00
4374;DHT22;2201;51.100;6.814;2023-06-26T02:23:30;23.00;87.90
4374;DHT22;2201;51.100;6.814;2023-06-26T02:25:56;23.00;87.80
4374;DHT22;2201;51.100;6.814;2023-06-26T02:28:23;23.00;87.70
4374;DHT22;2201;51.100;6.814;2023-06-26T02:30:50;23.00;87.70
4374;DHT22;2201;51.100;6.814;2023-06-26T02:33:18;22.90;88.10
4374;DHT22;2201;51.100;6.814;2023-06-26T02:35:45;22.90;87.90
4374;DHT22;2201;51.100;6.814;2023-06-26T02:38:11;22.80;88.20
4374;DHT22;2201;51.100;6.814;2023-06-26T02:40:38;22.80;88.10
4374;DHT22;2201;51.100;6.814;2023-06-26T02:43:06;22.80;88.10
4374;DHT22;2201;51.100;6.814;2023-06-26T02:45:32;22.80;87.90
4374;DHT22;2201;51.100;6.814;2023-06-26T02:47:59;22.70;87.70
4374;DHT22;2201;51.100;6.814;2023-06-26T02:50:27;22.70;87.60
4374;DHT22;2201;51.100;6.814;2023-06-26T02:52:54;22.70;87.90
4374;DHT22;2201;51.100;6.814;2023-06-26T02:55:21;22.70;88.10
4374;DHT22;2201;51.100;6.814;2023-06-26T02:57:47;22.70;87.70
4374;DHT22;2201;51.100;6.814;2023-06-26T03:00:15;22.70;88.10
4374;DHT22;2201;51.100;6.814;2023-06-26T03:02:41;22.70;88.60
4374;DHT22;2201;51.100;6.814;2023-06-26T03:05:08;22.60;88.30
4374;DHT22;2201;51.100;6.814;2023-06-26T03:07:36;22.60;88.40
4374;DHT22;2201;51.100;6.814;2023-06-26T03:10:03;22.60;88.40
4374;DHT22;2201;51.100;6.814;2023-06-26T03:12:30;22.60;88.10
4374;DHT22;2201;51.100;6.814;2023-06-26T03:14:57;22.60;88.60
4374;DHT22;2201;51.100;6.814;2023-06-26T03:17:24;22.60;88.50
4374;DHT22;2201;51.100;6.814;2023-06-26T03:19:51;22.60;88.70
4374;DHT22;2201;51.100;6.814;2023-06-26T03:22:17;22.60;88.80
4374;DHT22;2201;51.100;6.814;2023-06-26T03:24:46;22.60;89.40
4374;DHT22;2201;51.100;6.814;2023-06-26T03:27:12;22.50;89.40
4374;DHT22;2201;51.100;6.814;2023-06-26T03:29:39;22.50;89.10
4374;DHT22;2201;51.100;6.814;2023-06-26T03:32:06;22.50;90.40
4374;DHT22;2201;51.100;6.814;2023-06-26T03:34:33;22.50;90.10
4374;DHT22;2201;51.100;6.814;2023-06-26T03:37:00;22.50;90.90
4374;DHT22;2201;51.100;6.814;2023-06-26T03:39:27;22.50;90.30
4374;DHT22;2201;51.100;6.814;2023-06-26T03:41:55;22.40;91.70
4374;DHT22;2201;51.100;6.814;2023-06-26T03:44:25;22.40;91.90
4374;DHT22;2201;51.100;6.814;2023-06-26T03:46:52;22.40;92.20
4374;DHT22;2201;51.100;6.814;2023-06-26T03:49:19;22.50;93.10
4374;DHT22;2201;51.100;6.814;2023-06-26T03:51:46;22.50;94.10
4374;DHT22;2201;51.100;6.814;2023-06-26T03:54:13;22.50;93.50
4374;DHT22;2201;51.100;6.814;2023-06-26T03:56:39;22.50;93.60
4374;DHT22;2201;51.100;6.814;2023-06-26T03:59:08;22.50;94.40
4374;DHT22;2201;51.100;6.814;2023-06-26T04:01:35;22.60;93.80
4374;DHT22;2201;51.100;6.814;2023-06-26T04:04:03;22.60;94.20
4374;DHT22;2201;51.100;6.814;2023-06-26T04:06:29;22.60;93.90
4374;DHT22;2201;51.100;6.814;2023-06-26T04:08:57;22.70;94.00
4374;DHT22;2201;51.100;6.814;2023-06-26T04:11:24;22.70;94.20
4374;DHT22;2201;51.100;6.814;2023-06-26T04:13:51;22.70;94.00
4374;DHT22;2201;51.100;6.814;2023-06-26T04:16:20;22.70;94.40
4374;DHT22;2201;51.100;6.814;2023-06-26T04:18:46;22.70;94.20
4374;DHT22;2201;51.100;6.814;2023-06-26T04:21:13;22.70;94.20
4374;DHT22;2201;51.100;6.814;2023-06-26T04:23:40;22.80;94.00
4374;DHT22;2201;51.100;6.814;2023-06-26T04:26:08;22.80;94.20
4374;DHT22;2201;51.100;6.814;2023-06-26T04:28:39;22.80;94.40
4374;DHT22;2201;51.100;6.814;2023-06-26T04:31:06;22.80;94.30
4374;DHT22;2201;51.100;6.814;2023-06-26T04:33:36;22.90;94.40
4374;DHT22;2201;51.100;6.814;2023-06-26T04:36:03;22.90;94.10
4374;DHT22;2201;51.100;6.814;2023-06-26T04:38:30;23.00;94.90
4374;DHT22;2201;51.100;6.814;2023-06-26T04:40:57;23.00;94.30
4374;DHT22;2201;51.100;6.814;2023-06-26T04:43:23;23.10;95.20
4374;DHT22;2201;51.100;6.814;2023-06-26T04:45:50;23.10;94.90
4374;DHT22;2201;51.100;6.814;2023-06-26T04:48:17;23.10;95.00
4374;DHT22;2201;51.100;6.814;2023-06-26T04:50:46;23.20;95.00
4374;DHT22;2201;51.100;6.814;2023-06-26T04:53:18;23.30;94.80
4374;DHT22;2201;51.100;6.814;2023-06-26T04:55:44;23.40;94.40
4374;DHT22;2201;51.100;6.814;2023-06-26T04:58:11;23.40;94.50
4374;DHT22;2201;51.100;6.814;2023-06-26T05:00:38;23.50;94.40
4374;DHT22;2201;51.100;6.814;2023-06-26T05:03:08;23.50;94.10
4374;DHT22;2201;51.100;6.814;2023-06-26T05:05:34;23.60;94.00
4374;DHT22;2201;51.100;6.814;2023-06-26T05:08:16;23.70;93.60
4374;DHT22;2201;51.100;6.814;2023-06-26T05:10:43;23.70;93.70
4374;DHT22;2201;51.100;6.814;2023-06-26T05:13:17;23.80;93.20
4374;DHT22;2201;51.100;6.814;2023-06-26T05:16:03;23.80;93.10
4374;DHT22;2201;51.100;6.814;2023-06-26T05:18:36;23.80;92.90
4374;DHT22;2201;51.100;6.814;2023-06-26T05:21:04;23.70;92.60
4374;DHT22;2201;51.100;6.814;2023-06-26T05:23:33;23.70;92.70
4374;DHT22;2201;51.100;6.814;2023-06-26T05:29:18;23.60;92.50
4374;DHT22;2201;51.100;6.814;2023-06-26T05:31:47;23.60;92.80
4374;DHT22;2201;51.100;6.814;2023-06-26T05:34:17;23.50;92.60
4374;DHT22;2201;51.100;6.814;2023-06-26T05:36:49;23.50;92.50
4374;DHT22;2201;51.100;6.814;2023-06-26T05:39:19;23.50;92.70
4374;DHT22;2201;51.100;6.814;2023-06-26T05:45:08;23.50;92.80
4374;DHT22;2201;51.100;6.814;2023-06-26T05:47:36;23.60;92.80
4374;DHT22;2201;51.100;6.814;2023-06-26T05:50:04;23.70;91.30
4374;DHT22;2201;51.100;6.814;2023-06-26T05:52:32;23.70;91.90
4374;DHT22;2201;51.100;6.814;2023-06-26T05:55:01;23.60;91.70
4374;DHT22;2201;51.100;6.814;2023-06-26T05:57:30;23.50;91.90
4374;DHT22;2201;51.100;6.814;2023-06-26T05:59:57;23.60;92.30
4374;DHT22;2201;51.100;6.814;2023-06-26T06:02:25;23.80;92.30
4374;DHT22;2201;51.100;6.814;2023-06-26T06:04:52;24.00;91.90
4374;DHT22;2201;51.100;6.814;2023-06-26T06:07:22;24.20;90.70
4374;DHT22;2201;51.100;6.814;2023-06-26T06:09:49;24.30;90.80
4374;DHT22;2201;51.100;6.814;2023-06-26T06:12:18;24.30;90.20
4374;DHT22;2201;51.100;6.814;2023-06-26T06:14:45;24.30;90.50
4374;DHT22;2201;51.100;6.814;2023-06-26T06:17:12;24.30;90.30
4374;DHT22;2201;51.100;6.814;2023-06-26T06:19:40;24.30;90.40
4374;DHT22;2201;51.100;6.814;2023-06-26T06:22:07;24.40;90.60
4374;DHT22;2201;51.100;6.814;2023-06-26T06:24:34;24.50;90.20
4374;DHT22;2201;51.100;6.814;2023-06-26T06:27:01;24.60;90.00
4374;DHT22;2201;51.100;6.814;2023-06-26T06:29:29;24.70;89.90
4374;DHT22;2201;51.100;6.814;2023-06-26T06:31:56;24.60;89.40
4374;DHT22;2201;51.100;6.814;2023-06-26T06:34:23;24.40;89.80
4374;DHT22;2201;51.100;6.814;2023-06-26T06:36:51;24.30;90.10
4374;DHT22;2201;51.100;6.814;2023-06-26T06:39:18;24.20;91.20
4374;DHT22;2201;51.100;6.814;2023-06-26T06:41:45;23.90;91.20
4374;DHT22;2201;51.100;6.814;2023-06-26T06:44:12;23.90;92.20
4374;DHT22;2201;51.100;6.814;2023-06-26T06:46:40;24.10;92.20
4374;DHT22;2201;51.100;6.814;2023-06-26T06:49:08;24.30;91.80
4374;DHT22;2201;51.100;6.814;2023-06-26T06:51:35;24.60;91.50
4374;DHT22;2201;51.100;6.814;2023-06-26T06:54:02;24.90;90.80
4374;DHT22;2201;51.100;6.814;2023-06-26T06:56:29;25.20;90.00
4374;DHT22;2201;51.100;6.814;2023-06-26T06:58:56;25.50;88.70
4374;DHT22;2201;51.100;6.814;2023-06-26T07:01:24;25.60;88.20
4374;DHT22;2201;51.100;6.814;2023-06-26T07:03:52;25.70;87.30
4374;DHT22;2201;51.100;6.814;2023-06-26T07:06:19;25.80;88.00
4374;DHT22;2201;51.100;6.814;2023-06-26T07:08:46;25.90;87.90
4374;DHT22;2201;51.100;6.814;2023-06-26T07:11:13;25.90;87.50
4374;DHT22;2201;51.100;6.814;2023-06-26T07:13:41;25.90;87.20
4374;DHT22;2201;51.100;6.814;2023-06-26T07:16:08;25.80;88.00
4374;DHT22;2201;51.100;6.814;2023-06-26T07:18:38;25.70;87.20
4374;DHT22;2201;51.100;6.814;2023-06-26T07:21:06;25.40;87.70
4374;DHT22;2201;51.100;6.814;2023-06-26T07:23:33;25.40;88.50
4374;DHT22;2201;51.100;6.814;2023-06-26T07:26:01;25.40;88.80
4374;DHT22;2201;51.100;6.814;2023-06-26T07:28:28;25.60;88.70
4374;DHT22;2201;51.100;6.814;2023-06-26T07:30:55;25.80;87.90
4374;DHT22;2201;51.100;6.814;2023-06-26T07:33:22;26.00;87.10
4374;DHT22;2201;51.100;6.814;2023-06-26T07:35:49;26.20;86.80
4374;DHT22;2201;51.100;6.814;2023-06-26T07:38:17;26.40;86.70
4374;DHT22;2201;51.100;6.814;2023-06-26T07:40:45;26.70;86.30
4374;DHT22;2201;51.100;6.814;2023-06-26T07:43:12;27.00;85.50
4374;DHT22;2201;51.100;6.814;2023-06-26T07:45:39;27.30;83.90
4374;DHT22;2201;51.100;6.814;2023-06-26T07:48:06;27.40;83.90
4374;DHT22;2201;51.100;6.814;2023-06-26T07:50:35;27.60;83.70
4374;DHT22;2201;51.100;6.814;2023-06-26T07:53:02;27.70;82.60
4374;DHT22;2201;51.100;6.814;2023-06-26T07:55:32;27.80;82.40
4374;DHT22;2201;51.100;6.814;2023-06-26T07:57:59;27.90;81.70
4374;DHT22;2201;51.100;6.814;2023-06-26T08:00:28;27.90;81.70
4374;DHT22;2201;51.100;6.814;2023-06-26T08:02:56;27.70;81.70
4374;DHT22;2201;51.100;6.814;2023-06-26T08:05:23;27.50;82.40
4374;DHT22;2201;51.100;6.814;2023-06-26T08:07:50;27.40;82.90
4374;DHT22;2201;51.100;6.814;2023-06-26T08:10:17;27.50;83.60
4374;DHT22;2201;51.100;6.814;2023-06-26T08:12:48;27.60;82.30
4374;DHT22;2201;51.100;6.814;2023-06-26T08:15:18;27.60;82.60
4374;DHT22;2201;51.100;6.814;2023-06-26T08:17:46;27.70;82.70
4374;DHT22;2201;51.100;6.814;2023-06-26T08:20:14;27.90;81.40
4374;DHT22;2201;51.100;6.814;2023-06-26T08:22:41;27.90;81.50
4374;DHT22;2201;51.100;6.814;2023-06-26T08:25:09;27.80;81.80
4374;DHT22;2201;51.100;6.814;2023-06-26T08:27:36;27.70;82.80
4374;DHT22;2201;51.100;6.814;2023-06-26T08:30:06;27.60;82.90
4374;DHT22;2201;51.100;6.814;2023-06-26T08:32:34;27.50;82.80
4374;DHT22;2201;51.100;6.814;2023-06-26T08:35:02;27.40;83.40
4374;DHT22;2201;51.100;6.814;2023-06-26T08:37:30;27.60;82.70
4374;DHT22;2201;51.100;6.814;2023-06-26T08:39:58;27.80;82.20
4374;DHT22;2201;51.100;6.814;2023-06-26T08:42:25;27.80;81.90
4374;DHT22;2201;51.100;6.814;2023-06-26T08:44:51;27.70;82.60
4374;DHT22;2201;51.100;6.814;2023-06-26T08:47:20;27.60;82.60
4374;DHT22;2201;51.100;6.814;2023-06-26T08:50:07;27.40;82.80
4374;DHT22;2201;51.100;6.814;2023-06-26T08:52:36;27.30;82.40
4374;DHT22;2201;51.100;6.814;2023-06-26T08:55:09;27.30;83.70
4374;DHT22;2201;51.100;6.814;2023-06-26T08:57:36;27.50;82.50
4374;DHT22;2201;51.100;6.814;2023-06-26T09:00:04;27.70;82.00
4374;DHT22;2201;51.100;6.814;2023-06-26T09:02:34;27.90;81.40
4374;DHT22;2201;51.100;6.814;2023-06-26T09:05:02;27.90;81.20
4374;DHT22;2201;51.100;6.814;2023-06-26T09:07:29;28.10;81.20
4374;DHT22;2201;51.100;6.814;2023-06-26T09:09:56;28.20;80.30
4374;DHT22;2201;51.100;6.814;2023-06-26T09:12:23;28.30;79.90
4374;DHT22;2201;51.100;6.814;2023-06-26T09:14:50;28.30;78.70
4374;DHT22;2201;51.100;6.814;2023-06-26T09:17:17;28.30;79.20
4374;DHT22;2201;51.100;6.814;2023-06-26T09:19:48;28.20;79.20
4374;DHT22;2201;51.100;6.814;2023-06-26T09:22:15;28.30;79.60
4374;DHT22;2201;51.100;6.814;2023-06-26T09:24:43;28.30;79.20
4374;DHT22;2201;51.100;6.814;2023-06-26T09:27:11;28.40;78.40
4374;DHT22;2201;51.100;6.814;2023-06-26T09:29:38;28.60;78.00
4374;DHT22;2201;51.100;6.814;2023-06-26T09:32:05;28.70;77.10
4374;DHT22;2201;51.100;6.814;2023-06-26T09:34:34;28.70;78.10
4374;DHT22;2201;51.100;6.814;2023-06-26T09:37:03;28.80;77.60
4374;DHT22;2201;51.100;6.814;2023-06-26T09:39:30;28.80;77.40
4374;DHT22;2201;51.100;6.814;2023-06-26T09:42:08;28.70;77.90
4374;DHT22;2201;51.100;6.814;2023-06-26T09:44:43;28.90;77.20
4374;DHT22;2201;51.100;6.814;2023-06-26T09:47:10;28.90;76.60
4374;DHT22;2201;51.100;6.814;2023-06-26T09:49:43;28.90;76.20
4374;DHT22;2201;51.100;6.814;2023-06-26T09:52:14;28.90;75.60
4374;DHT22;2201;51.100;6.814;2023-06-26T09:55:07;28.90;75.60
4374;DHT22;2201;51.100;6.814;2023-06-26T09:57:34;29.10;75.90
4374;DHT22;2201;51.100;6.814;2023-06-26T10:00:03;29.40;75.10
4374;DHT22;2201;51.100;6.814;2023-06-26T10:02:33;29.50;74.30
4374;DHT22;2201;51.100;6.814;2023-06-26T10:05:05;29.50;74.60
4374;DHT22;2201;51.100;6.814;2023-06-26T10:07:45;29.50;74.30
4374;DHT22;2201;51.100;6.814;2023-06-26T10:10:13;29.40;74.40
4374;DHT22;2201;51.100;6.814;2023-06-26T10:12:43;29.40;75.10
4374;DHT22;2201;51.100;6.814;2023-06-26T10:15:14;29.40;74.10
4374;DHT22;2201;51.100;6.814;2023-06-26T10:17:43;29.40;73.70
4374;DHT22;2201;51.100;6.814;2023-06-26T10:20:13;29.60;72.80
4374;DHT22;2201;51.100;6.814;2023-06-26T10:22:46;29.70;72.90
4374;DHT22;2201;51.100;6.814;2023-06-26T10:25:18;29.90;72.20
4374;DHT22;2201;51.100;6.814;2023-06-26T10:27:49;30.00;71.40
4374;DHT22;2201;51.100;6.814;2023-06-26T10:30:22;30.20;71.00
4374;DHT22;2201;51.100;6.814;2023-06-26T10:32:52;30.40;70.70
4374;DHT22;2201;51.100;6.814;2023-06-26T10:35:19;30.70;70.50
4374;DHT22;2201;51.100;6.814;2023-06-26T10:37:50;30.70;69.90
4374;DHT22;2201;51.100;6.814;2023-06-26T10:40:23;30.40;69.90
4374;DHT22;2201;51.100;6.814;2023-06-26T10:43:05;30.40;71.00
4374;DHT22;2201;51.100;6.814;2023-06-26T10:45:34;30.40;70.80
4374;DHT22;2201;51.100;6.814;2023-06-26T10:48:01;30.20;70.50
4374;DHT22;2201;51.100;6.814;2023-06-26T10:50:31;30.00;69.60
4374;DHT22;2201;51.100;6.814;2023-06-26T10:53:14;30.10;69.80
4374;DHT22;2201;51.100;6.814;2023-06-26T10:55:48;30.20;68.40
4374;DHT22;2201;51.100;6.814;2023-06-26T10:58:30;30.50;69.10
4374;DHT22;2201;51.100;6.814;2023-06-26T11:01:19;30.80;68.10
4374;DHT22;2201;51.100;6.814;2023-06-26T11:03:49;31.00;68.10
4374;DHT22;2201;51.100;6.814;2023-06-26T11:06:19;31.20;67.60
4374;DHT22;2201;51.100;6.814;2023-06-26T11:08:49;31.50;65.80
4374;DHT22;2201;51.100;6.814;2023-06-26T11:11:17;31.40;65.20
4374;DHT22;2201;51.100;6.814;2023-06-26T11:13:48;31.30;64.30
4374;DHT22;2201;51.100;6.814;2023-06-26T11:16:15;31.30;65.00
4374;DHT22;2201;51.100;6.814;2023-06-26T11:18:43;31.40;65.20
4374;DHT22;2201;51.100;6.814;2023-06-26T11:21:12;31.50;65.00
4374;DHT22;2201;51.100;6.814;2023-06-26T11:23:41;31.50;66.30
4374;DHT22;2201;51.100;6.814;2023-06-26T11:26:19;31.40;65.30
4374;DHT22;2201;51.100;6.814;2023-06-26T11:28:49;31.00;65.80
4374;DHT22;2201;51.100;6.814;2023-06-26T11:31:27;30.90;66.10
4374;DHT22;2201;51.100;6.814;2023-06-26T11:33:56;31.00;65.70
4374;DHT22;2201;51.100;6.814;2023-06-26T11:36:25;31.10;64.60
4374;DHT22;2201;51.100;6.814;2023-06-26T11:38:55;31.30;63.20
4374;DHT22;2201;51.100;6.814;2023-06-26T11:41:26;31.50;61.20
4374;DHT22;2201;51.100;6.814;2023-06-26T11:44:00;31.60;60.80
4374;DHT22;2201;51.100;6.814;2023-06-26T11:46:28;31.70;61.00
4374;DHT22;2201;51.100;6.814;2023-06-26T11:48:55;31.80;61.40
4374;DHT22;2201;51.100;6.814;2023-06-26T11:51:22;31.90;62.10
4374;DHT22;2201;51.100;6.814;2023-06-26T11:53:50;32.00;62.00
4374;DHT22;2201;51.100;6.814;2023-06-26T11:56:20;31.90;62.30
4374;DHT22;2201;51.100;6.814;2023-06-26T11:59:01;31.50;62.50
4374;DHT22;2201;51.100;6.814;2023-06-26T12:01:32;31.10;63.40
4374;DHT22;2201;51.100;6.814;2023-06-26T12:04:02;31.00;64.20
4374;DHT22;2201;51.100;6.814;2023-06-26T12:06:31;31.00;64.00
4374;DHT22;2201;51.100;6.814;2023-06-26T12:09:01;30.80;64.20
4374;DHT22;2201;51.100;6.814;2023-06-26T12:11:30;30.70;64.60
4374;DHT22;2201;51.100;6.814;2023-06-26T12:13:59;30.50;65.80
4374;DHT22;2201;51.100;6.814;2023-06-26T12:16:28;30.50;64.40
4374;DHT22;2201;51.100;6.814;2023-06-26T12:18:58;30.30;64.40
4374;DHT22;2201;51.100;6.814;2023-06-26T12:21:45;30.20;64.20
4374;DHT22;2201;51.100;6.814;2023-06-26T12:24:15;30.10;64.40
4374;DHT22;2201;51.100;6.814;2023-06-26T12:26:43;30.20;65.50
4374;DHT22;2201;51.100;6.814;2023-06-26T12:29:14;30.40;65.40
4374;DHT22;2201;51.100;6.814;2023-06-26T12:31:44;30.50;64.70
4374;DHT22;2201;51.100;6.814;2023-06-26T12:34:12;30.20;64.70
4374;DHT22;2201;51.100;6.814;2023-06-26T12:36:43;29.90;65.90
4374;DHT22;2201;51.100;6.814;2023-06-26T12:39:11;29.50;64.90
4374;DHT22;2201;51.100;6.814;2023-06-26T12:41:46;29.30;65.00
4374;DHT22;2201;51.100;6.814;2023-06-26T12:44:19;29.20;65.20
4374;DHT22;2201;51.100;6.814;2023-06-26T12:46:47;28.90;65.10
4374;DHT22;2201;51.100;6.814;2023-06-26T12:49:16;28.80;65.60
4374;DHT22;2201;51.100;6.814;2023-06-26T12:51:43;28.80;65.00
4374;DHT22;2201;51.100;6.814;2023-06-26T12:54:11;29.00;65.10
4374;DHT22;2201;51.100;6.814;2023-06-26T12:56:38;29.20;62.80
4374;DHT22;2201;51.100;6.814;2023-06-26T12:59:08;29.50;62.90
4374;DHT22;2201;51.100;6.814;2023-06-26T13:01:38;29.90;63.10
4374;DHT22;2201;51.100;6.814;2023-06-26T13:04:05;30.10;61.70
4374;DHT22;2201;51.100;6.814;2023-06-26T13:06:34;30.10;60.80
4374;DHT22;2201;51.100;6.814;2023-06-26T13:09:01;29.90;61.90
4374;DHT22;2201;51.100;6.814;2023-06-26T13:11:30;29.80;61.60
4374;DHT22;2201;51.100;6.814;2023-06-26T13:13:57;29.80;61.00
4374;DHT22;2201;51.100;6.814;2023-06-26T13:16:25;29.90;61.10
4374;DHT22;2201;51.100;6.814;2023-06-26T13:18:53;30.00;60.50
4374;DHT22;2201;51.100;6.814;2023-06-26T13:21:21;30.00;59.60
4374;DHT22;2201;51.100;6.814;2023-06-26T13:23:51;29.90;58.90
4374;DHT22;2201;51.100;6.814;2023-06-26T13:26:19;29.70;58.50
4374;DHT22;2201;51.100;6.814;2023-06-26T13:28:47;29.80;60.00
4374;DHT22;2201;51.100;6.814;2023-06-26T13:31:14;30.00;59.60
4374;DHT22;2201;51.100;6.814;2023-06-26T13:33:41;30.20;58.70
4374;DHT22;2201;51.100;6.814;2023-06-26T13:36:11;30.50;57.80
4374;DHT22;2201;51.100;6.814;2023-06-26T13:38:39;30.50;56.80
4374;DHT22;2201;51.100;6.814;2023-06-26T13:41:06;30.50;57.40
4374;DHT22;2201;51.100;6.814;2023-06-26T13:43:33;30.50;56.50
4374;DHT22;2201;51.100;6.814;2023-06-26T13:46:00;30.70;56.60
4374;DHT22;2201;51.100;6.814;2023-06-26T13:48:28;30.80;57.70
4374;DHT22;2201;51.100;6.814;2023-06-26T13:50:56;30.70;58.50
4374;DHT22;2201;51.100;6.814;2023-06-26T13:53:25;30.60;57.70
4374;DHT22;2201;51.100;6.814;2023-06-26T13:55:52;30.10;58.40
4374;DHT22;2201;51.100;6.814;2023-06-26T13:58:21;30.00;58.20
4374;DHT22;2201;51.100;6.814;2023-06-26T14:00:52;29.90;58.10
4374;DHT22;2201;51.100;6.814;2023-06-26T14:03:19;29.90;58.10
4374;DHT22;2201;51.100;6.814;2023-06-26T14:05:47;29.70;57.90
4374;DHT22;2201;51.100;6.814;2023-06-26T14:08:16;29.50;57.60
4374;DHT22;2201;51.100;6.814;2023-06-26T14:10:51;29.20;59.00
4374;DHT22;2201;51.100;6.814;2023-06-26T14:13:18;28.90;59.20
4374;DHT22;2201;51.100;6.814;2023-06-26T14:15:46;28.70;60.00
4374;DHT22;2201;51.100;6.814;2023-06-26T14:18:14;28.90;60.90
4374;DHT22;2201;51.100;6.814;2023-06-26T14:20:41;29.10;60.10
4374;DHT22;2201;51.100;6.814;2023-06-26T14:23:08;29.20;60.10
4374;DHT22;2201;51.100;6.814;2023-06-26T14:25:36;29.30;59.90
4374;DHT22;2201;51.100;6.814;2023-06-26T14:28:04;29.40;59.30
4374;DHT22;2201;51.100;6.814;2023-06-26T14:30:32;29.20;60.70
4374;DHT22;2201;51.100;6.814;2023-06-26T14:32:59;29.10;59.20
4374;DHT22;2201;51.100;6.814;2023-06-26T14:35:26;28.90;59.80
4374;DHT22;2201;51.100;6.814;2023-06-26T14:37:53;28.70;59.40
4374;DHT22;2201;51.100;6.814;2023-06-26T14:40:21;28.60;59.80
4374;DHT22;2201;51.100;6.814;2023-06-26T14:42:48;28.60;60.30
4374;DHT22;2201;51.100;6.814;2023-06-26T14:45:17;28.60;59.60
4374;DHT22;2201;51.100;6.814;2023-06-26T14:47:44;28.70;59.30
4374;DHT22;2201;51.100;6.814;2023-06-26T14:50:11;28.80;59.70
4374;DHT22;2201;51.100;6.814;2023-06-26T14:52:38;28.70;60.80
4374;DHT22;2201;51.100;6.814;2023-06-26T14:55:06;28.50;61.40
4374;DHT22;2201;51.100;6.814;2023-06-26T14:57:33;28.40;62.70
4374;DHT22;2201;51.100;6.814;2023-06-26T15:00:00;28.30;62.30
4374;DHT22;2201;51.100;6.814;2023-06-26T15:02:30;28.00;62.70
4374;DHT22;2201;51.100;6.814;2023-06-26T15:04:57;27.90;62.90
4374;DHT22;2201;51.100;6.814;2023-06-26T15:07:24;27.70;63.80
4374;DHT22;2201;51.100;6.814;2023-06-26T15:09:51;27.60;63.70
4374;DHT22;2201;51.100;6.814;2023-06-26T15:12:22;27.50;63.50
4374;DHT22;2201;51.100;6.814;2023-06-26T15:14:53;27.50;64.00
4374;DHT22;2201;51.100;6.814;2023-06-26T15:17:22;27.60;63.60
4374;DHT22;2201;51.100;6.814;2023-06-26T15:19:51;27.70;63.80
4374;DHT22;2201;51.100;6.814;2023-06-26T15:22:18;27.70;63.80
4374;DHT22;2201;51.100;6.814;2023-06-26T15:24:45;27.70;62.50
4374;DHT22;2201;51.100;6.814;2023-06-26T15:27:13;27.60;62.50
4374;DHT22;2201;51.100;6.814;2023-06-26T15:29:40;27.40;63.50
4374;DHT22;2201;51.100;6.814;2023-06-26T15:32:07;27.30;63.90
4374;DHT22;2201;51.100;6.814;2023-06-26T15:34:35;27.30;63.20
4374;DHT22;2201;51.100;6.814;2023-06-26T15:37:04;27.30;62.40
4374;DHT22;2201;51.100;6.814;2023-06-26T15:39:31;27.30;62.10
4374;DHT22;2201;51.100;6.814;2023-06-26T15:41:58;27.00;61.80
4374;DHT22;2201;51.100;6.814;2023-06-26T15:44:28;27.00;63.60
4374;DHT22;2201;51.100;6.814;2023-06-26T15:46:56;27.00;62.40
4374;DHT22;2201;51.100;6.814;2023-06-26T15:49:23;27.20;63.40
4374;DHT22;2201;51.100;6.814;2023-06-26T15:51:50;27.30;63.10
4374;DHT22;2201;51.100;6.814;2023-06-26T15:54:18;27.40;62.80
4374;DHT22;2201;51.100;6.814;2023-06-26T15:56:45;27.40;61.50
4374;DHT22;2201;51.100;6.814;2023-06-26T15:59:13;27.50;61.50
4374;DHT22;2201;51.100;6.814;2023-06-26T16:01:44;27.60;62.50
4374;DHT22;2201;51.100;6.814;2023-06-26T16:04:11;27.60;62.30
4374;DHT22;2201;51.100;6.814;2023-06-26T16:06:38;27.70;61.80
4374;DHT22;2201;51.100;6.814;2023-06-26T16:09:06;27.80;61.60
4374;DHT22;2201;51.100;6.814;2023-06-26T16:11:35;27.70;62.10
4374;DHT22;2201;51.100;6.814;2023-06-26T16:14:04;27.60;63.10
4374;DHT22;2201;51.100;6.814;2023-06-26T16:16:32;27.50;62.40